Time;durP1;ratioP1;P1;durP2;ratioP2;P2;SDS_P1;SDS_P2;PMS_P1;PMS_P2;Temp;Humidity;BMP_temperature;BMP_pressure;BME280_temperature;BME280_humidity;BME280_pressure;Samples;Min_cycle;Max_cycle;Signal;HPM_P1;HPM_P2
2022/10/05 00:00:47;;;;;;;8.52;5.50;;;;;;;10.44;64.98;99899.56;4968506;28;20059;-71
2022/10/05 00:03:14;;;;;;;7.90;4.78;;;;;;;8.83;64.66;99611.25;4968305;28;20055;-71
2022/10/05 00:05:43;;;;;;;5.97;4.10;;;;;;;11.10;64.49;100000.78;4968469;28;20063;-71
2022/10/05 00:08:17;;;;;;;6.72;4.60;;;;;;;11.09;65.03;100001.72;4968421;28;20107;-71
2022/10/05 00:10:46;;;;;;;6.95;5.05;;;;;;;11.06;65.03;100004.53;4968324;28;20051;-72
2022/10/05 00:13:14;;;;;;;6.65;4.25;;;;;;;11.08;64.66;100002.66;4968346;28;20059;-73
2022/10/05 00:15:42;;;;;;;7.03;4.57;;;;;;;11.07;65.04;99999.13;4967979;28;20110;-73
2022/10/05 00:18:14;;;;;;;5.82;4.05;;;;;;;10.83;64.96;99947.25;4967868;28;20109;-73
2022/10/05 00:20:42;;;;;;;9.50;4.72;;;;;;;10.98;64.80;99982.78;4967895;28;20055;-73
2022/10/05 00:23:18;;;;;;;5.32;4.13;;;;;;;11.05;65.25;99982.44;4968055;28;20059;-73
2022/10/05 00:25:46;;;;;;;6.90;4.00;;;;;;;11.02;65.10;99987.88;4967854;28;20059;-73
2022/10/05 00:28:18;;;;;;;6.80;4.28;;;;;;;11.01;65.52;99983.50;4967853;28;20059;-73
2022/10/05 00:30:45;;;;;;;7.25;3.88;;;;;;;10.97;65.36;99975.78;4967844;28;20059;-73
2022/10/05 00:33:13;;;;;;;4.75;3.53;;;;;;;10.94;65.17;99984.72;4967958;28;20106;-73
2022/10/05 00:35:40;;;;;;;6.13;4.22;;;;;;;10.85;65.54;99983.38;4967660;28;20175;-73
2022/10/05 00:38:07;;;;;;;6.18;3.80;;;;;;;10.89;65.65;99982.28;4967654;28;20118;-73
2022/10/05 00:40:54;;;;;;;7.55;4.32;;;;;;;10.79;65.77;99967.75;4967895;28;20211;-73
2022/10/05 00:43:34;;;;;;;7.93;4.97;;;;;;;10.91;65.37;99982.22;4968059;28;20262;-73
2022/10/05 00:46:08;;;;;;;6.47;4.38;;;;;;;10.90;65.34;99985.81;4967852;28;20059;-73
2022/10/05 00:48:43;;;;;;;7.55;4.25;;;;;;;10.90;65.23;99978.72;4967781;28;20358;-73
2022/10/05 00:51:22;;;;;;;5.25;3.60;;;;;;;10.17;65.63;99864.59;4967707;28;20063;-73
2022/10/05 00:54:01;;;;;;;7.00;3.95;;;;;;;10.85;65.54;99979.84;4967672;28;20058;-73
2022/10/05 00:56:44;;;;;;;4.97;3.72;;;;;;;10.85;66.10;99977.22;4967548;28;20311;-73
2022/10/05 00:59:21;;;;;;;7.20;4.22;;;;;;;10.78;65.69;99973.13;4967598;28;20067;-73
2022/10/05 01:01:57;;;;;;;5.47;3.60;;;;;;;10.77;65.67;99980.22;4967210;28;20135;-73
2022/10/05 01:04:34;;;;;;;6.45;4.50;;;;;;;10.78;65.94;99973.97;4967119;28;20058;-73
2022/10/05 01:07:13;;;;;;;7.43;3.78;;;;;;;10.77;65.74;99982.88;4967450;28;20067;-73
2022/10/05 01:09:51;;;;;;;7.45;4.20;;;;;;;10.79;65.89;99974.84;4967401;28;20086;-73
2022/10/05 01:12:26;;;;;;;5.68;3.72;;;;;;;10.76;65.54;99977.59;4967359;28;20063;-73
2022/10/05 01:15:02;;;;;;;5.65;3.70;;;;;;;10.75;65.56;99974.09;4966548;28;20054;-73
2022/10/05 01:17:35;;;;;;;6.03;3.97;;;;;;;10.73;65.68;99975.94;4966925;28;20071;-73
2022/10/05 01:20:13;;;;;;;6.18;3.90;;;;;;;10.58;65.65;99945.69;4966990;28;20046;-73
2022/10/05 01:22:58;;;;;;;8.60;3.95;;;;;;;10.71;65.96;99972.50;4967058;28;20063;-73
2022/10/05 01:25:34;;;;;;;7.38;3.63;;;;;;;10.70;65.99;99983.19;4966796;28;20059;-71
2022/10/05 01:28:08;;;;;;;5.20;3.85;;;;;;;10.65;65.86;99977.22;4967138;28;20062;-71
2022/10/05 01:30:41;;;;;;;5.60;4.13;;;;;;;10.65;65.90;99972.78;4966818;28;20059;-71
2022/10/05 01:33:16;;;;;;;4.90;3.63;;;;;;;10.65;65.96;99961.31;4966774;28;20055;-71
2022/10/05 01:35:53;;;;;;;7.07;4.82;;;;;;;10.61;65.99;99955.31;4966739;28;20102;-71
2022/10/05 01:38:32;;;;;;;5.75;3.30;;;;;;;10.63;66.12;99958.75;4967000;28;20227;-71
2022/10/05 01:41:10;;;;;;;5.47;3.67;;;;;;;10.62;65.83;99951.72;4966699;28;20063;-71
2022/10/05 01:43:44;;;;;;;7.35;4.18;;;;;;;10.59;65.67;99942.13;4966880;28;20067;-71
2022/10/05 01:46:23;;;;;;;5.47;3.83;;;;;;;10.57;66.19;99940.47;4966982;28;20117;-71
2022/10/05 01:49:06;;;;;;;5.75;4.22;;;;;;;10.53;66.71;99945.06;4966944;28;20067;-71
2022/10/05 01:51:43;;;;;;;6.13;4.25;;;;;;;10.55;65.93;99944.97;4966872;28;20059;-71
2022/10/05 01:54:21;;;;;;;5.43;4.03;;;;;;;10.53;66.10;99937.09;4966908;28;20067;-71
2022/10/05 01:56:58;;;;;;;5.55;3.88;;;;;;;10.31;66.16;99898.41;4966842;28;20055;-71
2022/10/05 01:59:41;;;;;;;4.35;3.50;;;;;;;10.50;66.40;99937.25;4966870;28;20118;-71
2022/10/05 02:02:12;;;;;;;7.05;4.15;;;;;;;10.49;66.25;99927.56;4966557;28;20059;-71
2022/10/05 02:04:44;;;;;;;6.03;3.38;;;;;;;10.39;66.12;99902.41;4966823;28;20262;-71
2022/10/05 02:07:16;;;;;;;5.57;3.60;;;;;;;10.47;66.14;99924.13;4966524;28;20065;-71
2022/10/05 02:09:48;;;;;;;9.88;4.18;;;;;;;10.46;66.09;99925.06;4966533;28;20067;-71
2022/10/05 02:12:19;;;;;;;7.55;3.65;;;;;;;10.44;66.03;99924.28;4966705;28;20106;-71
2022/10/05 02:14:51;;;;;;;4.97;3.72;;;;;;;10.44;66.04;99923.41;4966708;28;20055;-71
2022/10/05 02:17:24;;;;;;;4.30;3.35;;;;;;;10.41;65.97;99929.72;4966408;28;20203;-71
2022/10/05 02:19:57;;;;;;;6.38;3.88;;;;;;;10.29;65.96;99914.38;4966381;28;20055;-71
2022/10/05 02:22:29;;;;;;;19.48;3.92;;;;;;;10.39;66.24;99922.75;4966520;28;20110;-71
2022/10/05 02:24:59;;;;;;;5.32;3.80;;;;;;;9.75;66.16;99820.56;4966178;28;20102;-71
2022/10/05 02:27:31;;;;;;;5.30;3.50;;;;;;;10.37;66.15;99924.63;4968714;28;20067;-73
2022/10/05 02:30:04;;;;;;;5.20;3.22;;;;;;;10.36;66.13;99923.75;4970484;28;20194;-71
2022/10/05 02:32:40;;;;;;;6.80;3.92;;;;;;;10.33;65.93;99917.72;4969610;28;20117;-71
2022/10/05 02:35:13;;;;;;;7.05;3.80;;;;;;;10.31;66.06;99920.47;4969897;28;20102;-71
2022/10/05 02:37:53;;;;;;;6.80;3.40;;;;;;;10.28;65.99;99916.16;4969826;28;20059;-71
2022/10/05 02:40:30;;;;;;;6.57;4.25;;;;;;;10.25;66.07;99926.88;4969734;28;20077;-71
2022/10/05 02:43:06;;;;;;;6.47;4.35;;;;;;;10.26;65.99;99919.81;4969772;28;20110;-71
2022/10/05 02:45:45;;;;;;;6.43;4.20;;;;;;;10.22;66.41;99915.56;4968963;29;20075;-71
2022/10/05 02:48:19;;;;;;;5.43;4.15;;;;;;;10.19;66.20;99908.63;4969945;28;20122;-71
2022/10/05 02:50:53;;;;;;;8.20;4.28;;;;;;;10.15;66.35;99901.75;4969657;28;20059;-71
2022/10/05 02:53:28;;;;;;;5.80;4.45;;;;;;;10.14;66.96;99900.03;4968692;29;20054;-71
2022/10/05 02:56:07;;;;;;;7.55;4.50;;;;;;;10.10;66.83;99897.56;4968982;29;20059;-72
2022/10/05 02:58:44;;;;;;;6.25;4.78;;;;;;;10.10;67.25;99894.94;4969567;28;20067;-73
2022/10/05 03:01:23;;;;;;;6.53;4.72;;;;;;;8.57;67.03;99641.44;4969691;28;20204;-73
2022/10/05 03:04:01;;;;;;;8.30;3.78;;;;;;;10.07;66.88;99895.06;4969312;28;20055;-73
2022/10/05 03:06:33;;;;;;;5.13;3.75;;;;;;;10.07;66.32;99898.56;4969276;28;20070;-73
2022/10/05 03:09:04;;;;;;;4.35;2.83;;;;;;;10.03;66.82;99899.63;4969291;28;20054;-71
2022/10/05 03:11:41;;;;;;;4.32;3.20;;;;;;;10.03;66.51;99898.78;4969653;28;20047;-71
2022/10/05 03:14:14;;;;;;;6.75;3.50;;;;;;;10.02;66.50;99900.56;4969156;28;20102;-71
2022/10/05 03:17:06;;;;;;;6.75;3.35;;;;;;;9.99;66.63;99890.13;4969194;28;20059;-71
2022/10/05 03:19:50;;;;;;;8.65;4.22;;;;;;;9.97;66.62;99894.63;4969061;28;20059;-71
2022/10/05 03:22:29;;;;;;;6.30;3.90;;;;;;;9.45;67.09;99811.34;4969401;28;20215;-71
2022/10/05 03:25:31;;;;;;;4.43;3.25;;;;;;;9.94;66.75;99884.16;4968949;28;20059;-71
2022/10/05 03:28:04;;;;;;;5.97;4.10;;;;;;;9.90;66.90;99885.22;4968969;28;20059;-71
2022/10/05 03:30:38;;;;;;;7.60;4.07;;;;;;;9.10;66.80;99733.44;4969031;28;20242;-71
2022/10/05 03:33:16;;;;;;;5.90;3.65;;;;;;;9.90;67.00;99888.72;4967896;29;20053;-73
2022/10/05 03:35:53;;;;;;;8.30;5.15;;;;;;;9.90;67.04;99886.06;4969169;28;20051;-73
2022/10/05 03:38:31;;;;;;;5.93;3.53;;;;;;;9.89;67.13;99886.16;4968565;28;20106;-73
2022/10/05 03:41:07;;;;;;;6.60;2.92;;;;;;;9.89;66.57;99876.41;4969057;28;20223;-73
2022/10/05 03:44:12;;;;;;;7.72;3.85;;;;;;;9.90;67.31;99864.91;4968552;28;20106;-73
2022/10/05 03:46:51;;;;;;;5.07;3.35;;;;;;;8.75;67.03;99854.72;4934971;28;20059;-74
2022/10/05 03:49:31;;;;;;;5.68;3.88;;;;;;;9.82;67.20;99872.31;4968866;28;20055;-73
2022/10/05 03:52:02;;;;;;;5.07;3.78;;;;;;;9.32;67.06;99797.75;4968565;28;20055;-73
2022/10/05 03:54:34;;;;;;;5.55;3.60;;;;;;;9.83;66.91;99878.47;4968627;28;20059;-73
2022/10/05 03:57:10;;;;;;;6.97;4.18;;;;;;;9.79;66.81;99880.41;4968750;28;20071;-73
2022/10/05 03:59:43;;;;;;;6.15;4.25;;;;;;;9.82;66.70;99869.66;4968402;28;20067;-74
2022/10/05 04:02:21;;;;;;;4.32;3.22;;;;;;;9.41;66.94;99815.03;4968644;28;20063;-73
2022/10/05 04:04:56;;;;;;;5.07;3.30;;;;;;;9.76;66.78;99858.50;4968560;28;20055;-73
2022/10/05 04:07:33;;;;;;;7.43;3.42;;;;;;;9.65;67.02;99836.94;4968588;28;20070;-73
2022/10/05 04:10:05;;;;;;;9.35;3.97;;;;;;;9.74;67.24;99863.00;4968541;28;20070;-73
2022/10/05 04:12:38;;;;;;;6.88;4.00;;;;;;;9.69;67.11;99863.19;4968327;28;20330;-71
2022/10/05 04:15:15;;;;;;;4.40;3.30;;;;;;;9.54;67.22;99850.63;4968082;28;20055;-71
2022/10/05 04:17:47;;;;;;;4.95;3.65;;;;;;;9.68;67.12;99874.72;4967937;28;20055;-72
2022/10/05 04:20:22;;;;;;;5.80;4.15;;;;;;;9.27;67.17;99819.09;4968149;28;20059;-71
2022/10/05 04:22:53;;;;;;;;;;;;;;;9.52;67.68;99882.44;4968378;28;20415;-71
2022/10/05 04:25:26;;;;;;;7.18;3.40;;;;;;;9.56;67.20;99877.88;4967855;28;19918;-71
2022/10/05 04:28:01;;;;;;;7.40;4.10;;;;;;;9.58;67.25;99876.88;4967733;28;20066;-71
2022/10/05 04:30:30;;;;;;;5.07;3.70;;;;;;;9.61;67.18;99870.59;4968130;28;20055;-71
2022/10/05 04:33:00;;;;;;;7.20;3.70;;;;;;;8.87;67.17;99745.00;4968290;28;20059;-71
2022/10/05 04:35:45;;;;;;;6.90;4.32;;;;;;;5.86;67.18;99239.34;4968032;28;20058;-71
2022/10/05 04:38:26;;;;;;;6.57;4.95;;;;;;;9.62;67.42;99872.31;4967965;28;20066;-71
2022/10/05 04:41:08;;;;;;;6.57;4.35;;;;;;;9.58;67.56;99876.88;4967896;28;20059;-71
2022/10/05 04:43:48;;;;;;;7.05;4.15;;;;;;;9.60;67.37;99882.97;4967545;28;20081;-71
2022/10/05 04:46:31;;;;;;;5.70;3.90;;;;;;;9.61;67.23;99881.19;4967705;28;20059;-71
2022/10/05 04:49:24;;;;;;;5.63;4.13;;;;;;;9.55;67.51;99882.31;4967055;28;20066;-71
2022/10/05 04:52:02;;;;;;;5.18;4.15;;;;;;;9.51;67.64;99886.00;4967701;28;20055;-71
2022/10/05 04:54:50;;;;;;;8.23;4.57;;;;;;;9.55;67.92;99889.38;4967345;28;20059;-72
2022/10/05 04:57:22;;;;;;;7.57;5.55;;;;;;;9.50;67.74;99883.44;4967291;28;20082;-73
2022/10/05 05:00:15;;;;;;;10.15;5.63;;;;;;;9.50;68.04;99886.94;4967359;28;20339;-73
2022/10/05 05:03:04;;;;;;;8.38;5.90;;;;;;;9.49;67.98;99882.56;4965708;28;20059;-73
2022/10/05 05:05:43;;;;;;;6.60;4.95;;;;;;;9.50;68.02;99900.16;4967492;28;20055;-73
2022/10/05 05:08:27;;;;;;;5.15;3.95;;;;;;;9.52;67.89;99897.47;4967178;28;20059;-73
2022/10/05 05:11:08;;;;;;;7.10;3.70;;;;;;;9.49;67.86;99901.09;4967636;28;20055;-73
2022/10/05 05:13:57;;;;;;;6.97;4.47;;;;;;;9.47;68.04;99900.31;4967315;28;20058;-73
2022/10/05 05:16:32;;;;;;;5.38;3.65;;;;;;;8.98;67.60;99828.22;4967331;28;20062;-73
2022/10/05 05:19:15;;;;;;;7.53;3.85;;;;;;;9.46;68.03;99906.50;4966893;28;20051;-72
2022/10/05 05:21:51;;;;;;;6.75;3.75;;;;;;;9.47;67.94;99902.94;4967248;28;20059;-72
2022/10/05 05:24:28;;;;;;;6.00;3.78;;;;;;;9.47;67.97;99905.59;4967310;28;20059;-72
2022/10/05 05:27:13;;;;;;;6.35;3.97;;;;;;;9.45;68.13;99901.28;4967053;28;20117;-72
2022/10/05 05:29:52;;;;;;;7.25;5.32;;;;;;;9.43;68.40;99913.72;4966844;28;20066;-73
2022/10/05 05:32:32;;;;;;;9.00;5.65;;;;;;;9.43;68.31;99917.22;4966882;28;20327;-72
2022/10/05 05:35:17;;;;;;;8.18;5.70;;;;;;;9.42;68.93;99917.28;4967019;28;20066;-70
2022/10/05 05:37:53;;;;;;;7.63;5.28;;;;;;;9.43;69.02;99914.56;4966672;28;20070;-70
2022/10/05 05:40:27;;;;;;;8.15;4.85;;;;;;;9.47;68.82;99912.66;4967096;28;20070;-70
2022/10/05 05:42:59;;;;;;;5.63;4.35;;;;;;;9.48;68.86;99923.19;4966588;28;20055;-70
2022/10/05 05:45:39;;;;;;;7.15;5.20;;;;;;;9.49;69.19;99918.75;4966898;28;20078;-72
2022/10/05 05:48:16;;;;;;;9.52;5.72;;;;;;;9.48;69.44;99917.91;4966962;28;20078;-72
2022/10/05 05:50:55;;;;;;;8.30;5.40;;;;;;;9.53;69.13;99909.75;4967014;28;20059;-72
2022/10/05 05:53:27;;;;;;;9.32;5.03;;;;;;;9.55;69.18;99916.72;4966662;28;20059;-72
2022/10/05 05:56:01;;;;;;;8.73;5.93;;;;;;;9.58;69.34;99918.38;4967383;28;20055;-72
2022/10/05 05:58:33;;;;;;;8.52;5.47;;;;;;;9.53;69.25;99901.81;4966566;28;20365;-72
2022/10/05 06:01:08;;;;;;;9.02;6.00;;;;;;;9.67;69.34;99919.75;4968310;28;20079;-72
2022/10/05 06:03:40;;;;;;;10.48;6.25;;;;;;;9.67;70.02;99927.72;4970703;28;20059;-72
2022/10/05 06:06:11;;;;;;;9.93;6.47;;;;;;;9.72;70.13;99929.22;4970343;28;20059;-72
2022/10/05 06:08:43;;;;;;;11.32;6.72;;;;;;;9.77;69.83;99939.63;4970652;28;20059;-72
2022/10/05 06:11:17;;;;;;;10.13;6.65;;;;;;;9.83;70.18;99939.34;4970605;28;20326;-72
2022/10/05 06:13:46;;;;;;;12.85;7.00;;;;;;;9.78;70.15;99933.41;4970360;28;20307;-73
2022/10/05 06:16:20;;;;;;;13.07;7.20;;;;;;;9.88;69.67;99940.03;4970160;28;20054;-72
2022/10/05 06:18:55;;;;;;;15.43;8.23;;;;;;;9.87;69.62;99944.47;4970298;28;20070;-72
2022/10/05 06:21:28;;;;;;;15.80;6.85;;;;;;;9.88;69.78;99951.47;4970113;28;20066;-72
2022/10/05 06:24:03;;;;;;;13.38;6.93;;;;;;;9.90;69.87;99952.28;4970521;28;20055;-72
2022/10/05 06:26:39;;;;;;;;;;;;;;;9.75;70.72;99947.63;4970489;28;20055;-72
2022/10/05 06:29:12;;;;;;;13.50;7.07;;;;;;;9.92;69.91;99950.41;4970175;28;19918;-72
2022/10/05 06:31:55;;;;;;;13.60;6.55;;;;;;;9.00;69.90;99786.72;4969950;28;20059;-72
2022/10/05 06:34:38;;;;;;;11.13;5.88;;;;;;;10.09;69.31;99965.56;4970189;28;20055;-71
2022/10/05 06:37:11;;;;;;;13.02;6.97;;;;;;;10.18;69.22;99970.47;4969771;28;20188;-70
2022/10/05 06:40:08;;;;;;;10.85;6.68;;;;;;;10.26;69.22;99959.53;4969761;28;20066;-70
2022/10/05 06:42:46;;;;;;;14.18;6.97;;;;;;;10.32;69.12;99953.09;4969703;28;20055;-70
2022/10/05 06:45:25;;;;;;;13.80;6.32;;;;;;;10.41;68.58;99947.41;4969714;28;20059;-73
2022/10/05 06:47:58;;;;;;;10.88;6.20;;;;;;;10.49;68.42;99943.47;4969589;28;20059;-70
2022/10/05 06:50:33;;;;;;;11.30;6.50;;;;;;;10.52;68.13;99945.13;4969695;28;20059;-70
2022/10/05 06:53:16;;;;;;;11.13;6.30;;;;;;;10.48;67.47;99923.19;4969728;28;20154;-70
2022/10/05 06:55:53;;;;;;;6.80;5.00;;;;;;;10.66;66.79;99949.78;4969536;28;20062;-70
2022/10/05 06:58:36;;;;;;;12.45;5.40;;;;;;;9.68;66.85;99763.53;4968409;29;20054;-70
2022/10/05 07:01:10;;;;;;;6.78;4.53;;;;;;;8.50;66.05;99560.75;4969515;28;20069;-70
2022/10/05 07:03:46;;;;;;;12.13;5.40;;;;;;;10.95;66.08;99948.47;4969568;28;20306;-71
2022/10/05 07:06:16;;;;;;;9.45;5.05;;;;;;;10.65;65.58;99890.63;4969430;28;20251;-71
2022/10/05 07:08:59;;;;;;;7.57;4.80;;;;;;;11.13;64.81;99959.06;4969062;28;20059;-71
2022/10/05 07:11:45;;;;;;;6.65;4.75;;;;;;;11.21;63.80;99958.69;4969388;28;20059;-71
2022/10/05 07:14:29;;;;;;;10.40;5.35;;;;;;;11.30;63.76;99952.09;4968691;28;20059;-70
2022/10/05 07:17:17;;;;;;;10.03;4.70;;;;;;;11.39;63.19;99952.50;4968970;28;20054;-71
2022/10/05 07:19:56;;;;;;;9.00;4.00;;;;;;;11.40;63.57;99954.22;4968876;28;20463;-71
2022/10/05 07:22:40;;;;;;;7.43;4.70;;;;;;;11.46;63.24;99963.66;4969054;28;20059;-73
2022/10/05 07:25:13;;;;;;;8.23;4.80;;;;;;;11.41;62.70;99939.16;4969235;28;20059;-71
2022/10/05 07:27:46;;;;;;;6.88;4.90;;;;;;;11.63;62.29;99961.03;4968977;28;20506;-71
2022/10/05 07:30:16;;;;;;;8.77;4.23;;;;;;;11.72;61.75;99963.22;4969078;28;20090;-71
2022/10/05 07:32:51;;;;;;;7.68;4.72;;;;;;;11.83;62.21;99963.56;4968773;28;20059;-71
2022/10/05 07:38:27;;;;;;;8.65;4.80;;;;;;;11.97;61.17;99972.63;4969128;28;20047;-71
2022/10/05 07:41:02;;;;;;;8.00;6.15;;;;;;;12.16;61.53;99974.31;4968631;28;20059;-71
2022/10/05 07:43:38;;;;;;;10.20;5.15;;;;;;;12.20;61.20;99975.00;4968945;28;20063;-71
2022/10/05 07:46:16;;;;;;;8.13;4.95;;;;;;;12.29;61.05;99971.00;4968539;28;20051;-71
2022/10/05 07:49:02;;;;;;;8.45;5.32;;;;;;;12.47;60.67;99978.88;4968818;28;20129;-71
2022/10/05 07:51:36;;;;;;;6.93;5.03;;;;;;;12.54;60.39;99974.09;4968472;28;20058;-71
2022/10/05 07:54:16;;;;;;;7.63;4.95;;;;;;;12.66;59.89;99969.91;4968340;28;20195;-71
2022/10/05 07:56:44;;;;;;;8.13;4.78;;;;;;;12.84;60.05;99963.59;4968375;28;20059;-71
2022/10/05 07:59:20;;;;;;;9.25;5.93;;;;;;;11.65;59.49;99748.56;4968124;28;20059;-72
2022/10/05 08:01:57;;;;;;;7.07;5.05;;;;;;;12.95;59.15;99965.66;4968516;28;20055;-72
2022/10/05 08:04:27;;;;;;;6.70;5.03;;;;;;;13.03;59.07;99958.13;4968528;28;20200;-72
2022/10/05 08:06:57;;;;;;;7.93;4.50;;;;;;;13.09;59.24;99957.78;4968078;28;20059;-71
2022/10/05 08:09:38;;;;;;;6.35;4.13;;;;;;;13.12;58.64;99954.94;4968428;28;20258;-72
2022/10/05 08:12:36;;;;;;;7.07;4.25;;;;;;;13.10;57.40;99949.72;4968309;28;20102;-72
2022/10/05 08:15:11;;;;;;;6.85;4.95;;;;;;;13.20;58.40;99949.19;4946220;28;20114;-72
2022/10/05 08:17:48;;;;;;;6.78;3.40;;;;;;;13.26;58.09;99951.50;4967458;28;20114;-72
2022/10/05 08:20:25;;;;;;;5.07;3.55;;;;;;;13.30;58.17;99951.25;4968229;28;20067;-72
2022/10/05 08:22:59;;;;;;;4.43;2.80;;;;;;;13.38;57.54;99950.81;4967917;28;20059;-72
2022/10/05 08:25:36;;;;;;;6.55;3.70;;;;;;;13.51;57.97;99951.00;4967883;28;20087;-72
2022/10/05 08:28:10;;;;;;;6.03;3.28;;;;;;;13.52;57.76;99939.38;4967742;28;20059;-72
2022/10/05 08:30:51;;;;;;;5.32;3.28;;;;;;;13.67;57.81;99951.81;4967609;28;20051;-72
2022/10/05 08:33:22;;;;;;;4.90;3.40;;;;;;;13.71;57.93;99940.88;4967972;28;20314;-72
2022/10/05 08:35:59;;;;;;;4.95;3.53;;;;;;;13.78;57.58;99941.38;4967834;28;20059;-72
2022/10/05 08:38:32;;;;;;;8.43;3.33;;;;;;;13.39;56.91;99876.16;4967903;28;20059;-72
2022/10/05 08:41:29;;;;;;;4.82;3.38;;;;;;;13.94;55.75;99936.88;4968093;28;20227;-72
2022/10/05 08:44:31;;;;;;;9.77;4.22;;;;;;;14.07;55.58;99929.00;4967818;28;20059;-72
2022/10/05 08:47:27;;;;;;;7.82;3.85;;;;;;;14.13;56.07;99931.28;4967518;28;20103;-72
2022/10/05 08:50:25;;;;;;;5.75;3.58;;;;;;;14.18;54.52;99923.88;4967540;29;20172;-72
2022/10/05 08:53:19;;;;;;;6.95;3.45;;;;;;;14.24;54.71;99912.81;4967205;28;20122;-72
2022/10/05 08:56:11;;;;;;;7.83;3.60;;;;;;;14.40;54.56;99915.41;4967528;28;20117;-73
2022/10/05 08:59:05;;;;;;;5.22;3.25;;;;;;;14.48;54.92;99914.94;4957458;29;20066;-73
2022/10/05 09:01:49;;;;;;;6.75;3.78;;;;;;;14.54;55.58;99904.72;4967473;28;20066;-71
2022/10/05 09:04:30;;;;;;;5.18;3.50;;;;;;;14.67;55.34;99910.22;4967050;28;20067;-71
2022/10/05 09:07:09;;;;;;;8.50;4.43;;;;;;;14.86;54.21;99901.91;4966325;29;20115;-72
2022/10/05 09:10:06;;;;;;;5.95;3.60;;;;;;;14.88;54.08;99905.31;4967167;28;20067;-72
2022/10/05 09:12:52;;;;;;;5.95;3.33;;;;;;;14.85;54.49;99901.03;4967259;28;20370;-72
2022/10/05 09:15:45;;;;;;;6.47;3.47;;;;;;;14.92;53.63;99906.84;4966944;28;20059;-72
2022/10/05 09:18:45;;;;;;;4.38;3.15;;;;;;;14.90;53.66;99904.28;4966707;28;20051;-71
2022/10/05 09:21:30;;;;;;;4.28;2.97;;;;;;;14.99;55.04;99903.69;4959648;28;20059;-72
2022/10/05 09:24:15;;;;;;;6.15;3.33;;;;;;;15.08;55.40;99902.22;4966659;28;20054;-72
2022/10/05 09:26:44;;;;;;;4.38;3.42;;;;;;;15.00;55.51;99896.53;4967009;28;20106;-72
2022/10/05 09:30:03;;;;;;;10.57;4.63;;;;;;;14.35;54.91;99793.03;4967158;28;20058;-72
2022/10/05 09:32:53;;;;;;;4.45;3.28;;;;;;;15.06;54.60;99918.34;4926951;29;20064;-72
2022/10/05 09:35:38;;;;;;;5.18;2.88;;;;;;;15.12;55.20;99916.22;4926393;29;20064;-72
2022/10/05 09:38:17;;;;;;;8.57;4.07;;;;;;;15.06;54.94;99914.81;4960947;28;20106;-72
2022/10/05 09:41:28;;;;;;;6.03;4.32;;;;;;;15.11;55.40;99914.53;4966930;28;20118;-72
2022/10/05 09:44:28;;;;;;;8.55;4.88;;;;;;;15.15;55.71;99908.88;4966442;28;20067;-72
2022/10/05 09:47:19;;;;;;;6.15;3.17;;;;;;;15.19;55.59;99914.88;4965657;29;20063;-72
2022/10/05 09:50:12;;;;;;;7.03;3.70;;;;;;;15.30;55.77;99915.88;4964056;29;20055;-72
2022/10/05 09:52:56;;;;;;;6.95;3.90;;;;;;;15.43;54.37;99913.25;4966198;28;20106;-72
2022/10/05 09:55:45;;;;;;;5.75;3.58;;;;;;;15.45;54.70;99889.13;4966700;28;20274;-72
2022/10/05 09:58:35;;;;;;;4.47;3.17;;;;;;;15.61;54.68;99904.00;4966612;28;20052;-72
2022/10/05 10:01:20;;;;;;;5.80;3.40;;;;;;;15.79;54.98;99912.63;4966777;28;20059;-72
2022/10/05 10:04:21;;;;;;;4.60;3.40;;;;;;;15.79;54.08;99917.13;4965531;29;20127;-72
2022/10/05 10:07:24;;;;;;;4.40;3.38;;;;;;;15.85;53.80;99914.91;4966424;28;20247;-72
2022/10/05 10:10:28;;;;;;;4.95;3.25;;;;;;;15.40;54.28;99828.84;4932329;28;20055;-72
2022/10/05 10:13:18;;;;;;;6.07;3.28;;;;;;;15.86;54.22;99900.56;4966505;28;20341;-72
2022/10/05 10:16:02;;;;;;;7.50;3.75;;;;;;;15.87;54.50;99896.09;4966326;28;20248;-72
2022/10/05 10:18:45;;;;;;;5.35;3.03;;;;;;;15.85;54.47;99901.53;4966104;28;20263;-72
2022/10/05 10:21:41;;;;;;;7.15;3.60;;;;;;;15.77;53.88;99893.19;4966163;28;20321;-72
2022/10/05 10:24:31;;;;;;;7.22;3.75;;;;;;;15.40;54.63;99847.56;4954496;29;20149;-72
2022/10/05 10:27:16;;;;;;;4.43;3.65;;;;;;;15.68;54.91;99889.31;4966266;28;20055;-73
2022/10/05 10:30:19;;;;;;;7.25;3.50;;;;;;;15.68;55.17;99893.81;4966298;28;20316;-72
2022/10/05 10:33:14;;;;;;;5.68;3.30;;;;;;;15.67;55.45;99900.09;4965729;28;20118;-72
2022/10/05 10:35:50;;;;;;;6.68;4.57;;;;;;;15.65;55.30;99902.88;4966053;28;20059;-72
2022/10/05 10:38:39;;;;;;;8.55;3.42;;;;;;;15.69;55.88;99893.69;4966067;28;20051;-72
2022/10/05 10:41:30;;;;;;;4.30;3.40;;;;;;;15.80;55.83;99895.66;4966630;28;20067;-72
2022/10/05 10:44:32;;;;;;;6.25;4.25;;;;;;;15.99;55.92;99897.91;4966088;28;20062;-71
2022/10/05 10:47:27;;;;;;;7.38;3.17;;;;;;;16.03;55.58;99888.72;4950109;28;20055;-72
2022/10/05 10:50:23;;;;;;;16.55;4.47;;;;;;;16.06;55.49;99885.84;4969250;28;20322;-72
2022/10/05 10:52:56;;;;;;;;;;;;;;;15.97;55.85;99881.97;4970319;28;20059;-71
2022/10/05 10:55:40;;;;;;;4.60;3.33;;;;;;;16.07;55.08;99874.19;4969956;28;19926;-71
2022/10/05 10:58:51;;;;;;;7.70;4.38;;;;;;;16.12;55.54;99857.81;4969630;28;20055;-72
2022/10/05 11:01:31;;;;;;;5.32;3.17;;;;;;;16.34;55.62;99874.91;4964938;29;20107;-71
2022/10/05 11:04:22;;;;;;;4.80;3.90;;;;;;;16.51;54.97;99870.19;4969539;28;20322;-71
2022/10/05 11:07:18;;;;;;;7.57;3.80;;;;;;;16.62;54.29;99857.75;4969302;28;20067;-71
2022/10/05 11:10:21;;;;;;;4.68;3.40;;;;;;;16.68;53.78;99857.34;4969467;28;20102;-72
2022/10/05 11:13:15;;;;;;;5.00;3.30;;;;;;;16.75;54.67;99856.88;4952394;28;20118;-72
2022/10/05 11:16:13;;;;;;;5.68;3.85;;;;;;;16.77;54.08;99855.81;4969391;28;20370;-72
2022/10/05 11:19:01;;;;;;;4.93;3.60;;;;;;;16.76;54.57;99850.56;4968861;28;20126;-72
2022/10/05 11:21:35;;;;;;;4.97;3.03;;;;;;;16.83;54.96;99844.66;4969480;28;20059;-72
2022/10/05 11:24:37;;;;;;;7.28;3.13;;;;;;;16.82;54.41;99844.78;4969011;28;20059;-72
2022/10/05 11:27:33;;;;;;;4.90;3.00;;;;;;;16.84;54.51;99845.50;4968572;28;20063;-72
2022/10/05 11:30:30;;;;;;;5.65;3.55;;;;;;;16.88;54.54;99842.50;4964159;28;20090;-72
2022/10/05 11:33:30;;;;;;;5.75;3.30;;;;;;;15.59;54.44;99720.75;4968772;28;20059;-72
2022/10/05 11:36:24;;;;;;;4.20;3.15;;;;;;;17.01;55.00;99837.09;4968985;28;20122;-72
2022/10/05 11:39:24;;;;;;;6.88;3.90;;;;;;;17.02;54.41;99827.22;4969084;28;20063;-74
2022/10/05 11:42:25;;;;;;;5.88;3.80;;;;;;;16.98;55.20;99808.72;4968815;28;20105;-72
2022/10/05 11:45:20;;;;;;;4.50;3.17;;;;;;;16.67;54.68;99755.75;4966468;28;20063;-72
2022/10/05 11:48:15;;;;;;;5.57;3.20;;;;;;;17.10;54.63;99822.16;4968374;28;20099;-71
2022/10/05 11:50:50;;;;;;;;;;;;;;;17.07;55.26;99819.72;4969370;28;20046;-71
2022/10/05 11:53:25;;;;;;;4.78;3.33;;;;;;;17.17;55.21;99821.59;4968226;28;19926;-72
2022/10/05 11:56:03;;;;;;;3.85;2.97;;;;;;;17.29;55.04;99814.50;4967893;28;20110;-72
2022/10/05 11:58:36;;;;;;;7.10;4.32;;;;;;;17.35;54.21;99811.34;4967920;28;20055;-71
2022/10/05 12:01:12;;;;;;;4.83;3.23;;;;;;;16.86;54.80;99723.97;4968639;28;20067;-71
2022/10/05 12:03:55;;;;;;;5.95;3.50;;;;;;;17.39;53.82;99812.81;4968300;28;20059;-73
2022/10/05 12:06:48;;;;;;;5.25;3.50;;;;;;;17.43;53.67;99813.44;4968397;28;20102;-72
2022/10/05 12:09:33;;;;;;;6.13;3.67;;;;;;;17.17;53.12;99761.81;4967859;28;20066;-72
2022/10/05 12:12:11;;;;;;;6.78;3.60;;;;;;;17.51;54.06;99813.72;4967822;28;20109;-73
2022/10/05 12:14:49;;;;;;;5.25;3.00;;;;;;;17.60;53.14;99810.31;4968146;28;20083;-73
2022/10/05 12:17:27;;;;;;;5.82;3.50;;;;;;;17.76;53.13;99801.97;4967546;28;20154;-74
2022/10/05 12:19:59;;;;;;;6.45;3.85;;;;;;;17.28;53.49;99725.25;4967683;28;20054;-73
2022/10/05 12:22:34;;;;;;;5.95;3.35;;;;;;;17.78;52.98;99795.53;4967847;28;20059;-73
2022/10/05 12:25:16;;;;;;;5.10;3.38;;;;;;;17.72;53.39;99796.00;4967489;28;20202;-73
2022/10/05 12:27:46;;;;;;;5.45;3.53;;;;;;;17.73;54.53;99791.50;4967130;28;20117;-73
2022/10/05 12:30:19;;;;;;;6.20;3.47;;;;;;;17.51;53.55;99749.41;4967168;28;20062;-73
2022/10/05 12:32:58;;;;;;;5.47;3.47;;;;;;;17.50;53.54;99766.44;4967397;28;20311;-73
2022/10/05 12:35:33;;;;;;;5.25;3.38;;;;;;;17.69;54.09;99798.06;4967700;28;20148;-74
2022/10/05 12:38:07;;;;;;;4.03;3.03;;;;;;;17.71;54.35;99796.13;4967517;28;20046;-74
2022/10/05 12:40:44;;;;;;;5.78;3.67;;;;;;;17.48;53.24;99785.31;4967643;28;20104;-73